.
WxDataArchive / Data Records for 2015-09-16
2015-09-15 September 2015 2015-09-17

Data Records for Wednesday, 16 September 2015

Time	Temp	Chill	HIndex	Humid	Dewpt	 Wind 	HiWind	WindDir	Rain 	Barom 
-----	----	-----	------	-----	-----	------	------	-------	-----	----- 
00:00	58.6	58.6	58.6	80	52.4	0	0	---	0.00	30.241 
00:05	58.4	58.4	58.4	80	52.3	0	0	---	0.00	30.241 
00:10	58.3	58.3	58.3	80	52.2	0	0	---	0.00	30.241 
00:15	58.1	58.1	58.1	81	52.3	0	0	---	0.00	30.243 
00:20	58.0	58.0	58.0	81	52.2	0	0	---	0.00	30.243 
00:25	58.0	58.0	58.0	81	52.2	0	0	---	0.00	30.243 
00:30	57.8	57.8	57.8	81	52.0	0	0	---	0.00	30.242 
00:35	57.6	57.6	57.6	81	51.8	0	0	---	0.00	30.242 
00:40	57.5	57.5	57.5	81	51.7	0	0	---	0.00	30.242 
00:45	57.3	57.3	57.3	82	51.9	0	0	---	0.00	30.241 
00:50	57.2	57.2	57.2	82	51.8	0	0	---	0.00	30.241 
00:55	57.2	57.2	57.2	83	52.1	0	0	---	0.00	30.241 
01:00	57.0	57.0	57.0	83	51.9	0	0	---	0.00	30.242 
01:05	57.0	57.0	57.0	83	51.9	0	0	---	0.00	30.242 
01:10	56.9	56.9	56.9	84	52.1	0	0	---	0.00	30.242 
01:15	56.9	56.9	56.9	84	52.1	0	0	---	0.00	30.241 
01:20	56.7	56.7	56.7	84	51.9	0	0	---	0.00	30.241 
01:25	56.6	56.6	56.6	84	51.8	0	0	---	0.00	30.241 
01:30	56.6	56.6	56.6	84	51.8	0	0	---	0.00	30.240 
01:35	56.5	56.5	56.5	84	51.7	0	0	---	0.00	30.240 
01:40	56.3	56.3	56.3	84	51.5	0	0	---	0.00	30.240 
01:45	56.3	56.3	56.3	84	51.5	0	0	---	0.00	30.239 
01:50	56.2	56.2	56.2	84	51.4	0	0	---	0.00	30.239 
01:55	56.0	56.0	56.0	85	51.6	0	0	---	0.00	30.239 
02:00	56.0	56.0	56.0	85	51.6	0	0	---	0.00	30.241 
02:05	55.9	55.9	55.9	85	51.5	0	0	---	0.00	30.241 
02:10	55.9	55.9	55.9	85	51.5	0	0	---	0.00	30.241 
02:15	55.7	55.7	55.7	86	51.6	0	0	---	0.00	30.241 
02:20	55.9	55.9	55.9	88	52.4	0	1	90	0.00	30.241 
02:25	55.9	55.9	55.9	88	52.4	0	0	---	0.00	30.241 
02:30	55.9	55.9	55.9	88	52.4	0	0	---	0.00	30.242 
02:35	55.7	55.7	55.7	89	52.5	0	0	---	0.00	30.242 
02:40	55.7	55.7	55.7	89	52.5	0	0	---	0.00	30.242 
02:45	55.6	55.6	55.6	89	52.4	0	0	---	0.00	30.250 
02:50	55.4	55.4	55.4	89	52.2	0	0	---	0.00	30.250 
02:55	55.3	55.3	55.3	89	52.1	0	0	---	0.00	30.250 
03:00	55.1	55.1	55.1	89	51.9	0	0	---	0.00	30.255 
03:05	55.1	55.1	55.1	89	51.9	0	0	---	0.00	30.255 
03:10	55.0	55.0	55.0	89	51.8	0	0	---	0.00	30.255 
03:15	54.8	54.8	54.8	89	51.6	0	0	---	0.00	30.256 
03:20	54.7	54.7	54.7	89	51.5	0	0	---	0.00	30.256 
03:25	54.7	54.7	54.7	89	51.5	0	0	---	0.00	30.256 
03:30	54.5	54.5	54.5	89	51.3	0	0	---	0.00	30.256 
03:35	54.5	54.5	54.5	90	51.6	0	0	---	0.00	30.256 
03:40	54.4	54.4	54.4	90	51.5	0	0	---	0.00	30.256 
03:45	54.4	54.4	54.4	90	51.5	0	0	---	0.00	30.256 
03:50	54.2	54.2	54.2	90	51.3	0	0	---	0.00	30.256 
03:55	54.1	54.1	54.1	90	51.2	0	0	---	0.00	30.256 
04:00	53.9	53.9	53.9	90	51.0	0	0	---	0.00	30.256 
04:05	53.9	53.9	53.9	90	51.0	0	0	---	0.00	30.256 
04:10	53.8	53.8	53.8	90	50.9	0	0	---	0.00	30.256 
04:15	53.6	53.6	53.6	90	50.7	0	0	---	0.00	30.258 
04:20	53.5	53.5	53.5	90	50.6	0	0	---	0.00	30.258 
04:25	53.5	53.5	53.5	91	50.9	0	0	---	0.00	30.258 
04:30	53.5	53.5	53.5	91	50.9	0	0	---	0.00	30.253 
04:35	53.3	53.3	53.3	91	50.7	0	0	---	0.00	30.253 
04:40	53.3	53.3	53.3	91	50.7	0	0	---	0.00	30.253 
04:45	53.2	53.2	53.2	91	50.6	0	0	---	0.00	30.248 
04:50	53.2	53.2	53.2	92	50.9	0	0	---	0.00	30.248 
04:55	53.2	53.2	53.2	92	50.9	0	0	---	0.00	30.248 
05:00	53.1	53.1	53.1	92	50.8	0	0	---	0.00	30.246 
05:05	53.1	53.1	53.1	92	50.8	0	0	---	0.00	30.246 
05:10	52.9	52.9	52.9	92	50.6	0	0	---	0.00	30.246 
05:15	52.9	52.9	52.9	92	50.6	0	0	---	0.00	30.248 
05:20	52.8	52.8	52.8	92	50.5	0	0	---	0.00	30.248 
05:25	52.8	52.8	52.8	92	50.5	0	0	---	0.00	30.248 
05:30	52.6	52.6	52.6	92	50.3	0	0	---	0.00	30.248 
05:35	52.6	52.6	52.6	92	50.3	0	0	---	0.00	30.248 
05:40	52.5	52.5	52.5	92	50.2	0	0	---	0.00	30.248 
05:45	52.3	52.3	52.3	92	50.0	0	0	---	0.00	30.249 
05:50	52.3	52.3	52.3	92	50.0	0	0	---	0.00	30.249 
05:55	52.2	52.2	52.2	92	49.9	0	0	---	0.00	30.249 
06:00	52.2	52.2	52.2	92	49.9	0	0	---	0.00	30.247 
06:05	52.0	52.0	52.0	92	49.7	0	0	---	0.00	30.247 
06:10	52.0	52.0	52.0	92	49.7	0	0	---	0.00	30.247 
06:15	52.0	52.0	52.0	92	49.7	0	0	---	0.00	30.249 
06:20	52.0	52.0	52.0	92	49.7	0	0	---	0.00	30.249 
06:25	51.9	51.9	51.9	92	49.6	0	0	---	0.00	30.249 
06:30	51.9	51.9	51.9	92	49.6	0	0	---	0.00	30.248 
06:35	51.9	51.9	51.9	92	49.6	0	0	---	0.00	30.248 
06:40	51.7	51.7	51.7	92	49.5	0	0	---	0.00	30.248 
06:45	51.7	51.7	51.7	92	49.5	0	0	---	0.00	30.250 
06:50	51.7	51.7	51.7	93	49.7	0	0	---	0.00	30.250 
06:55	51.7	51.7	51.7	93	49.7	0	0	---	0.00	30.250 
07:00	51.7	51.7	51.7	93	49.7	0	0	---	0.00	30.251 
07:05	51.6	51.6	51.6	93	49.6	0	0	---	0.00	30.251 
07:10	51.6	51.6	51.6	93	49.6	0	0	---	0.00	30.251 
07:15	51.6	51.6	51.6	93	49.6	0	0	---	0.00	30.259 
07:20	51.6	51.6	51.6	93	49.6	0	0	---	0.00	30.259 
07:25	51.4	51.4	51.4	93	49.4	0	0	---	0.00	30.259 
07:30	51.4	51.4	51.4	93	49.4	0	0	---	0.00	30.265 
07:35	51.4	51.4	51.4	93	49.4	0	0	---	0.00	30.265 
07:40	51.3	51.3	51.3	93	49.3	0	0	---	0.00	30.265 
07:45	51.3	51.3	51.3	93	49.3	0	0	---	0.00	30.268 
07:50	51.4	51.4	51.4	93	49.4	0	0	---	0.00	30.268 
07:55	51.4	51.4	51.4	93	49.4	0	0	---	0.00	30.268 
08:00	51.6	51.6	51.6	93	49.6	0	0	---	0.00	30.269 
08:05	51.7	51.7	51.7	93	49.7	0	0	---	0.00	30.269 
08:10	52.0	52.0	52.0	94	50.3	0	0	---	0.00	30.269 
08:15	52.3	52.3	52.3	94	50.6	0	0	---	0.00	30.284 
08:20	52.6	52.6	52.6	94	50.9	0	0	---	0.00	30.284 
08:25	52.9	52.9	52.9	94	51.2	0	0	---	0.00	30.284 
08:30	53.2	53.2	53.2	94	51.5	0	0	---	0.00	30.286 
08:35	53.6	53.6	53.6	94	51.9	0	0	---	0.00	30.286 
08:40	54.1	54.1	54.1	94	52.4	0	0	---	0.00	30.286 
08:45	54.7	54.7	54.7	94	53.0	0	0	---	0.00	30.285 
08:50	55.3	55.3	55.3	94	53.6	0	0	---	0.00	30.285 
08:55	55.9	55.9	55.9	94	54.2	0	0	---	0.00	30.285 
09:00	56.5	56.5	56.5	94	54.8	0	0	---	0.00	30.284 
09:05	57.0	57.0	57.0	93	55.0	0	0	---	0.00	30.284 
09:10	57.8	57.8	57.8	92	55.5	0	0	---	0.00	30.284 
09:15	58.4	58.4	58.4	90	55.5	0	0	---	0.00	30.287 
09:20	59.2	59.2	59.2	88	55.6	0	0	---	0.00	30.287 
09:25	59.8	59.8	59.8	87	55.9	0	0	---	0.00	30.287 
09:30	60.4	60.4	60.4	85	55.9	0	0	---	0.00	30.287 
09:35	61.2	61.2	61.2	83	56.0	0	0	---	0.00	30.287 
09:40	62.0	62.0	62.0	81	56.1	0	0	---	0.00	30.287 
09:45	62.9	62.9	62.9	78	55.9	0	1	90	0.00	30.283 
09:50	63.7	63.7	63.7	76	56.0	0	0	---	0.00	30.283 
09:55	64.5	64.5	64.5	73	55.6	0	0	---	0.00	30.283 
10:00	65.2	65.2	65.2	72	55.9	0	0	---	0.00	30.281 
10:05	65.6	65.6	65.6	72	56.3	0	0	---	0.00	30.281 
10:10	66.4	66.4	66.4	69	55.9	0	0	---	0.00	30.281 
10:15	67.8	67.8	67.8	67	56.4	0	1	90	0.00	30.279 
10:20	69.1	69.1	69.1	63	56.0	0	1	90	0.00	30.279 
10:25	70.4	70.4	70.4	62	56.7	0	1	90	0.00	30.279 
10:30	71.5	71.5	71.5	60	56.9	0	0	---	0.00	30.279 
10:35	72.5	72.5	72.5	57	56.4	0	1	90	0.00	30.279 
10:40	73.3	73.3	73.3	57	57.1	0	1	90	0.00	30.279 
10:45	74.0	74.0	74.0	53	55.8	0	1	90	0.00	30.277 
10:50	74.9	74.9	74.9	52	56.1	0	1	90	0.00	30.277 
10:55	75.6	75.6	77.9	50	55.6	0	1	90	0.00	30.277 
11:00	76.0	76.0	78.1	50	56.0	0	3	90	0.00	30.274 
11:05	76.5	76.5	78.3	50	56.5	0	1	90	0.00	30.274 
11:10	77.0	77.0	78.5	48	55.8	0	3	90	0.00	30.274 
11:15	77.7	77.7	78.9	47	55.8	0	1	90	0.00	30.273 
11:20	78.3	78.3	79.2	46	55.8	0	1	90	0.00	30.273 
11:25	78.6	78.6	79.4	46	56.1	0	1	90	0.00	30.273 
11:30	79.0	79.0	79.7	46	56.4	0	1	90	0.00	30.268 
11:35	78.8	78.8	79.6	46	56.2	0	2	90	0.00	30.268 
11:40	79.4	79.4	79.9	45	56.2	0	1	90	0.00	30.268 
11:45	79.2	79.2	79.8	45	56.0	0	1	90	0.00	30.261 
11:50	79.6	79.6	80.0	44	55.7	0	1	90	0.00	30.261 
11:55	79.9	79.9	80.1	43	55.4	0	2	90	0.00	30.261 
12:00	79.6	79.6	79.9	43	55.1	0	2	90	0.00	30.258 
12:05	79.8	79.8	80.0	43	55.3	0	1	90	0.00	30.258 
12:10	80.3	80.3	80.5	44	56.4	0	1	90	0.00	30.258 
12:15	81.1	81.1	80.8	41	55.1	0	1	90	0.00	30.256 
12:20	81.1	81.1	80.7	40	54.5	0	2	90	0.00	30.256 
12:25	80.1	80.1	80.2	42	54.9	1	3	68	0.00	30.256 
12:30	80.1	80.1	80.3	43	55.6	0	2	68	0.00	30.254 
12:35	80.3	80.3	80.1	40	53.8	0	2	68	0.00	30.254 
12:40	80.7	80.7	80.4	40	54.1	0	1	68	0.00	30.254 
12:45	80.9	80.9	80.5	39	53.6	0	2	68	0.00	30.246 
12:50	81.2	81.2	80.7	39	53.9	0	2	68	0.00	30.246 
12:55	81.2	81.2	80.7	39	53.9	0	2	338	0.00	30.246 
13:00	81.6	81.6	81.1	40	54.9	0	2	338	0.00	30.241 
13:05	81.8	81.8	81.2	39	54.4	0	1	338	0.00	30.241 
13:10	82.0	82.0	81.3	39	54.6	1	3	338	0.00	30.241 
13:15	82.0	82.0	81.3	39	54.6	1	3	90	0.00	30.237 
13:20	82.0	82.0	81.3	39	54.6	0	2	90	0.00	30.237 
13:25	82.2	82.2	81.5	39	54.7	0	1	90	0.00	30.237 
13:30	82.8	82.8	81.8	37	53.8	0	4	90	0.00	30.233 
13:35	83.0	83.0	81.7	35	52.5	0	2	270	0.00	30.233 
13:40	83.0	83.0	81.7	35	52.5	0	3	90	0.00	30.233 
13:45	83.2	83.2	82.0	36	53.4	1	3	112	0.00	30.227 
13:50	83.0	83.0	81.7	35	52.5	1	4	90	0.00	30.227 
13:55	82.8	82.8	81.4	34	51.5	0	5	90	0.00	30.227 
14:00	82.8	82.8	81.8	37	53.8	0	3	90	0.00	30.224 
14:05	82.6	82.6	81.3	34	51.4	1	4	90	0.00	30.224 
14:10	82.4	82.4	81.3	36	52.7	1	4	90	0.00	30.224 
14:15	82.6	82.6	81.4	35	52.1	0	3	90	0.00	30.222 
14:20	82.8	82.8	81.4	34	51.5	1	3	112	0.00	30.222 
14:25	82.6	82.6	81.3	34	51.4	0	3	225	0.00	30.222 
14:30	82.8	82.8	81.3	33	50.7	0	2	135	0.00	30.214 
14:35	83.0	83.0	81.7	35	52.5	0	1	135	0.00	30.214 
14:40	83.2	83.2	81.6	32	50.2	1	3	90	0.00	30.214 
14:45	83.2	83.2	81.8	34	51.9	1	3	90	0.00	30.209 
14:50	83.2	83.2	81.9	35	52.7	0	2	90	0.00	30.209 
14:55	83.2	83.2	81.7	33	51.1	0	2	90	0.00	30.209 
15:00	83.6	83.6	81.9	32	50.6	0	1	90	0.00	30.197 
15:05	83.8	83.8	82.3	34	52.4	0	2	90	0.00	30.197 
15:10	83.8	83.8	81.9	31	49.9	0	4	90	0.00	30.197 
15:15	83.6	83.6	81.9	32	50.6	0	4	90	0.00	30.194 
15:20	83.4	83.4	81.8	33	51.2	0	3	90	0.00	30.194 
15:25	83.2	83.2	81.6	32	50.2	0	3	270	0.00	30.194 
15:30	83.2	83.2	81.8	34	51.9	0	1	270	0.00	30.188 
15:35	83.2	83.2	81.6	32	50.2	1	3	270	0.00	30.188 
15:40	83.4	83.4	81.7	32	50.4	0	2	112	0.00	30.188 
15:45	83.4	83.4	81.9	34	52.1	0	1	90	0.00	30.180 
15:50	83.4	83.4	81.7	32	50.4	0	1	90	0.00	30.180 
15:55	83.2	83.2	81.7	33	51.1	0	2	338	0.00	30.180 
16:00	82.8	82.8	81.3	33	50.7	0	3	338	0.00	30.174 
16:05	82.6	82.6	81.2	33	50.6	0	1	315	0.00	30.174 
16:10	82.6	82.6	81.2	33	50.6	0	2	22	0.00	30.174 
16:15	82.4	82.4	81.1	34	51.2	0	2	90	0.00	30.169 
16:20	82.4	82.4	80.9	32	49.5	1	3	90	0.00	30.169 
16:25	82.4	82.4	81.1	34	51.2	0	3	292	0.00	30.169 
16:30	82.2	82.2	80.9	33	50.2	0	2	315	0.00	30.167 
16:35	82.2	82.2	81.1	35	51.8	0	1	315	0.00	30.167 
16:40	82.0	82.0	80.8	34	50.8	1	3	90	0.00	30.167 
16:45	82.0	82.0	80.7	33	50.0	0	2	90	0.00	30.164 
16:50	81.8	81.8	80.6	33	49.9	0	3	112	0.00	30.164 
16:55	81.6	81.6	80.4	32	48.9	0	1	112	0.00	30.164 
17:00	81.6	81.6	80.4	32	48.9	0	2	112	0.00	30.160 
17:05	81.6	81.6	80.5	34	50.5	0	4	112	0.00	30.160 
17:10	81.6	81.6	80.5	33	49.7	0	1	112	0.00	30.160 
17:15	81.6	81.6	80.5	33	49.7	0	2	112	0.00	30.153 
17:20	81.4	81.4	80.3	33	49.5	0	2	112	0.00	30.153 
17:25	81.2	81.2	80.2	33	49.3	0	1	112	0.00	30.153 
17:30	81.2	81.2	80.3	34	50.1	0	2	112	0.00	30.152 
17:35	81.2	81.2	80.2	33	49.3	0	1	112	0.00	30.152 
17:40	81.2	81.2	80.3	34	50.1	0	2	112	0.00	30.152 
17:45	81.1	81.1	80.1	33	49.2	0	2	112	0.00	30.151 
17:50	81.1	81.1	80.3	35	50.8	0	1	202	0.00	30.151 
17:55	80.9	80.9	80.1	34	49.9	0	1	202	0.00	30.151 
18:00	81.1	81.1	80.2	34	50.0	0	1	202	0.00	30.151 
18:05	81.1	81.1	80.1	33	49.2	0	2	202	0.00	30.151 
18:10	81.1	81.1	80.2	34	50.0	0	2	202	0.00	30.151 
18:15	80.9	80.9	80.1	34	49.9	0	4	90	0.00	30.149 
18:20	80.7	80.7	79.9	34	49.7	0	2	112	0.00	30.149 
18:25	80.5	80.5	79.9	35	50.3	0	2	112	0.00	30.149 
18:30	80.3	80.3	79.7	35	50.1	0	1	112	0.00	30.147 
18:35	80.3	80.3	79.7	35	50.1	0	2	112	0.00	30.147 
18:40	80.1	80.1	79.6	35	50.0	0	2	112	0.00	30.147 
18:45	79.9	79.9	79.5	35	49.8	0	2	112	0.00	30.142 
18:50	79.8	79.8	79.4	35	49.7	0	2	112	0.00	30.142 
18:55	79.6	79.6	79.4	36	50.3	0	1	112	0.00	30.142 
19:00	79.4	79.4	79.3	37	50.8	0	1	112	0.00	30.141 
19:05	79.0	79.0	79.1	37	50.5	0	2	112	0.00	30.141 
19:10	78.8	78.8	79.0	38	51.0	0	1	112	0.00	30.141 
19:15	78.5	78.5	78.9	38	50.8	0	0	---	0.00	30.138 
19:20	78.1	78.1	78.7	39	51.1	0	0	---	0.00	30.138 
19:25	77.7	77.7	78.5	39	50.7	0	0	---	0.00	30.138 
19:30	77.4	77.4	78.4	40	51.2	0	0	---	0.00	30.137 
19:35	77.0	77.0	78.3	42	52.1	0	0	---	0.00	30.137 
19:40	76.5	76.5	78.2	44	52.9	0	0	---	0.00	30.137 
19:45	76.0	76.0	78.0	44	52.5	0	0	---	0.00	30.137 
19:50	75.3	75.3	77.7	44	51.9	0	0	---	0.00	30.137 
19:55	74.7	74.7	74.7	46	52.5	0	0	---	0.00	30.137 
20:00	74.2	74.2	74.2	47	52.7	0	0	---	0.00	30.138 
20:05	73.5	73.5	73.5	50	53.7	0	0	---	0.00	30.138 
20:10	73.0	73.0	73.0	51	53.8	0	0	---	0.00	30.138 
20:15	72.3	72.3	72.3	51	53.1	0	0	---	0.00	30.132 
20:20	71.8	71.8	71.8	52	53.2	0	0	---	0.00	30.132 
20:25	71.1	71.1	71.1	53	53.1	0	0	---	0.00	30.132 
20:30	70.4	70.4	70.4	55	53.4	0	0	---	0.00	30.135 
20:35	69.9	69.9	69.9	57	54.0	0	0	---	0.00	30.135 
20:40	69.6	69.6	69.6	58	54.2	0	0	---	0.00	30.135 
20:45	69.1	69.1	69.1	59	54.2	0	0	---	0.00	30.139 
20:50	68.8	68.8	68.8	59	53.9	0	0	---	0.00	30.139 
20:55	68.4	68.4	68.4	60	54.0	0	0	---	0.00	30.139 
21:00	67.9	67.9	67.9	62	54.4	0	0	---	0.00	30.142 
21:05	67.6	67.6	67.6	63	54.5	0	0	---	0.00	30.142 
21:10	67.1	67.1	67.1	64	54.5	0	0	---	0.00	30.142 
21:15	66.8	66.8	66.8	64	54.2	0	0	---	0.00	30.134 
21:20	66.6	66.6	66.6	65	54.5	0	0	---	0.00	30.134 
21:25	66.3	66.3	66.3	66	54.6	0	0	---	0.00	30.134 
21:30	66.0	66.0	66.0	66	54.3	0	0	---	0.00	30.137 
21:35	65.6	65.6	65.6	67	54.3	0	0	---	0.00	30.137 
21:40	65.5	65.5	65.5	68	54.7	0	0	---	0.00	30.137 
21:45	65.3	65.3	65.3	68	54.5	0	0	---	0.00	30.135 
21:50	65.0	65.0	65.0	69	54.6	0	0	---	0.00	30.135 
21:55	64.8	64.8	64.8	70	54.8	0	0	---	0.00	30.135 
22:00	64.7	64.7	64.7	71	55.1	0	0	---	0.00	30.134 
22:05	64.5	64.5	64.5	71	54.9	0	0	---	0.00	30.134 
22:10	64.3	64.3	64.3	72	55.1	0	0	---	0.00	30.134 
22:15	64.2	64.2	64.2	72	55.0	0	0	---	0.00	30.126 
22:20	64.0	64.0	64.0	72	54.8	0	0	---	0.00	30.126 
22:25	63.7	63.7	63.7	72	54.5	0	0	---	0.00	30.126 
22:30	63.7	63.7	63.7	73	54.9	0	0	---	0.00	30.128 
22:35	63.4	63.4	63.4	74	55.0	0	0	---	0.00	30.128 
22:40	63.2	63.2	63.2	74	54.8	0	0	---	0.00	30.128 
22:45	63.1	63.1	63.1	74	54.7	0	0	---	0.00	30.130 
22:50	62.9	62.9	62.9	74	54.5	0	0	---	0.00	30.130 
22:55	62.7	62.7	62.7	75	54.7	0	0	---	0.00	30.130 
23:00	62.6	62.6	62.6	74	54.2	0	0	---	0.00	30.130 
23:05	62.6	62.6	62.6	76	54.9	0	0	---	0.00	30.130 
23:10	62.4	62.4	62.4	76	54.7	0	0	---	0.00	30.130 
23:15	62.4	62.4	62.4	76	54.7	0	0	---	0.00	30.127 
23:20	62.3	62.3	62.3	77	55.0	0	0	---	0.00	30.127 
23:25	62.1	62.1	62.1	77	54.8	0	0	---	0.00	30.127 
23:30	62.0	62.0	62.0	77	54.7	0	0	---	0.00	30.128 
23:35	61.8	61.8	61.8	77	54.5	0	0	---	0.00	30.128 
23:40	61.8	61.8	61.8	77	54.5	0	0	---	0.00	30.128 
23:45	61.6	61.6	61.6	78	54.7	0	0	---	0.00	30.128 
23:50	61.5	61.5	61.5	78	54.6	0	0	---	0.00	30.128 
23:55	61.3	61.3	61.3	78	54.4	0	0	---	0.00	30.128 

CoCoRaHS
IN-AL-39
A2 Web Hosting
Creative Commons License
GoDaddy
search engine by freefind advanced

loaded 2018-11-12 15:45:56 • last modified 2010-11-18 10:43:29
Privacy PolicyDisclaimer
• wx.awcolley.com is powered by PmWiki v.2002016 •
• all content (unless otherwise noted) © 2018 A W Colley